NORTHEAST SUFFOLK  -  Coastal Flood Statement Coastal Flood Statement        NORTHERN NASSAU  -  Coastal Flood Statement Coastal Flood Statement     Coastal Flood Statement Coastal Flood Statement        NORTHERN QUEENS  -  Coastal Flood Statement Coastal Flood Statement        NORTHWEST SUFFOLK  -  Coastal Flood Statement Coastal Flood Statement        SOUTHEAST SUFFOLK  -  Coastal Flood Statement Coastal Flood Statement        SOUTHERN NASSAU  -  Coastal Flood Statement Coastal Flood Statement     Coastal Flood Statement Coastal Flood Statement        SOUTHERN QUEENS  -  Coastal Flood Statement Coastal Flood Statement        SOUTHWEST SUFFOLK  -  Coastal Flood Statement Coastal Flood Statement      

Active alerts

Northern Queens
  Details for Northern Queens Coastal Flood Statement
Southern Queens
  Details for Southern Queens Coastal Flood Statement
Northern Nassau
  Details for Northern Nassau Coastal Flood Statement  +1 additional alert
Southern Nassau
  Details for Southern Nassau Coastal Flood Statement  +1 additional alert
Northwest Suffolk
  Details for Northwest Suffolk Coastal Flood Statement
Southwest Suffolk
  Details for Southwest Suffolk Coastal Flood Statement
Northeast Suffolk
  Details for Northeast Suffolk Coastal Flood Statement
Southeast Suffolk
  Details for Southeast Suffolk Coastal Flood Statement


WXM80 ListenWXM80 Stop

You find our weather info also at:

UK Metoffice

WeatherCloud

Weather Underground

Northeastern Weather Network

AWEKAS

Citizen Weather Observer Program (CWOP)

HAMweather, WeatherForYou, PWS Weather


Weather Underground History page Text

Daily Summary for December 10, 2017 Units:  English    Metric   Both
« Previous Day
Next Day »
Daily Weekly Monthly Yearly Custom
  High: Low: Average:
Temperature: 38.9 °F 31.5 °F 34.6 °F
Dew Point: 32.1 °F 26.2 °F 29.5 °F
Humidity: 96 % 70 % 82 %
Wind Speed: 10.9 mph 0.0 mph 2.7 mph
Wind Gust: 18.0 mph - -
Wind:- - SW
Pressure: 30.01 in 29.69 in -
Precipitation: 0.00 in    
Historical Graphs
 
 
Tabular Data for December 10, 2017
Time Temperature Dew Point Pressure Wind Wind Speed Wind Gust Humidity Rainfall Rate (Hourly)
00:00 32.8 °F 31.8 °F 29.70 in Calm     96 % 0.00 in
00:05 32.9 °F 31.9 °F 29.70 in Calm     96 % 0.00 in
00:10 32.9 °F 31.9 °F 29.70 in Calm     96 % 0.00 in
00:15 32.9 °F 31.9 °F 29.69 in Calm     96 % 0.00 in
00:20 32.9 °F 31.9 °F 29.69 in Calm     96 % 0.00 in
00:25 33.0 °F 32.0 °F 29.69 in Calm     96 % 0.00 in
00:30 33.0 °F 32.0 °F 29.69 in Calm     96 % 0.00 in
00:50 33.1 °F 32.1 °F 29.70 in Calm     96 % 0.00 in
01:15 33.1 °F 31.8 °F 29.70 in Calm     95 % 0.00 in
01:25 33.2 °F 31.9 °F 29.71 in Calm     95 % 0.00 in
01:30 33.2 °F 31.9 °F 29.71 in Calm     95 % 0.00 in
01:35 33.2 °F 31.9 °F 29.71 in Calm     95 % 0.00 in
01:46 33.2 °F 31.9 °F 29.72 in Calm     95 % 0.00 in
01:51 33.2 °F 31.9 °F 29.72 in Calm     95 % 0.00 in
01:56 33.2 °F 31.9 °F 29.71 in Calm     95 % 0.00 in
02:01 33.2 °F 31.9 °F 29.71 in Calm     95 % 0.00 in
02:06 33.2 °F 31.9 °F 29.71 in Calm     95 % 0.00 in
02:11 33.2 °F 31.9 °F 29.71 in Calm     95 % 0.00 in
02:16 33.1 °F 31.8 °F 29.72 in Calm     95 % 0.00 in
02:26 33.1 °F 31.8 °F 29.72 in Calm     95 % 0.00 in
02:31 33.0 °F 31.7 °F 29.72 in Calm     95 % 0.00 in
02:36 33.0 °F 31.7 °F 29.72 in Calm     95 % 0.00 in
02:41 33.0 °F 31.7 °F 29.73 in Calm     95 % 0.00 in
02:46 32.9 °F 31.6 °F 29.73 in Calm     95 % 0.00 in
02:51 32.9 °F 31.6 °F 29.73 in Calm     95 % 0.00 in
02:56 32.9 °F 31.4 °F 29.73 in Calm     94 % 0.00 in
03:11 33.0 °F 31.5 °F 29.73 in Calm     94 % 0.00 in
03:21 33.0 °F 31.5 °F 29.73 in Calm     94 % 0.00 in
03:26 33.0 °F 31.5 °F 29.73 in Calm     94 % 0.00 in
03:31 33.0 °F 31.5 °F 29.73 in Calm     94 % 0.00 in
03:41 33.1 °F 31.8 °F 29.73 in Calm     95 % 0.00 in
03:56 33.1 °F 31.8 °F 29.73 in Calm     95 % 0.00 in
04:01 33.0 °F 31.5 °F 29.73 in Calm     94 % 0.00 in
04:12 32.9 °F 31.4 °F 29.73 in Calm     94 % 0.00 in
04:17 32.8 °F 31.3 °F 29.73 in Calm     94 % 0.00 in
04:22 32.8 °F 31.3 °F 29.74 in Calm     94 % 0.00 in
04:42 32.4 °F 30.6 °F 29.74 in Calm     93 % 0.00 in
04:47 32.3 °F 30.5 °F 29.75 in Calm     93 % 0.00 in
04:52 32.2 °F 30.4 °F 29.75 in Calm     93 % 0.00 in
05:02 32.1 °F 30.3 °F 29.76 in Calm     93 % 0.00 in
05:07 32.1 °F 30.0 °F 29.76 in Calm     92 % 0.00 in
05:12 32.1 °F 30.0 °F 29.76 in Calm     92 % 0.00 in
05:17 32.0 °F 29.9 °F 29.76 in Calm     92 % 0.00 in
05:22 32.0 °F 29.9 °F 29.76 in Calm     92 % 0.00 in
05:27 32.0 °F 29.9 °F 29.77 in Calm     92 % 0.00 in
05:32 32.0 °F 29.9 °F 29.77 in Calm     92 % 0.00 in
05:42 31.9 °F 29.6 °F 29.78 in Calm     91 % 0.00 in
05:47 31.9 °F 29.6 °F 29.78 in Calm     91 % 0.00 in
05:57 31.8 °F 29.5 °F 29.79 in Calm     91 % 0.00 in
06:08 31.8 °F 29.5 °F 29.79 in Calm     91 % 0.00 in
06:23 31.7 °F 29.1 °F 29.80 in Calm     90 % 0.00 in
06:28 31.6 °F 29.0 °F 29.80 in Calm     90 % 0.00 in
06:33 31.6 °F 29.0 °F 29.81 in Calm     90 % 0.00 in
06:38 31.6 °F 29.0 °F 29.81 in Calm     90 % 0.00 in
06:43 31.6 °F 29.0 °F 29.81 in Calm     90 % 0.00 in
06:48 31.5 °F 28.9 °F 29.81 in Calm     90 % 0.00 in
06:53 31.5 °F 28.9 °F 29.81 in Calm     90 % 0.00 in
07:03 31.5 °F 28.9 °F 29.82 in Calm     90 % 0.00 in
07:08 31.5 °F 28.9 °F 29.83 in Calm     90 % 0.00 in
07:13 31.5 °F 28.9 °F 29.83 in Calm     90 % 0.00 in
07:18 31.5 °F 28.9 °F 29.83 in Calm     90 % 0.00 in
07:28 31.6 °F 28.7 °F 29.85 in Calm     89 % 0.00 in
07:33 31.6 °F 28.7 °F 29.85 in Calm     89 % 0.00 in
07:38 31.6 °F 28.7 °F 29.85 in Calm     89 % 0.00 in
07:43 31.6 °F 28.7 °F 29.85 in Calm     89 % 0.00 in
07:48 31.7 °F 28.8 °F 29.85 in Calm     89 % 0.00 in
07:53 31.7 °F 28.6 °F 29.85 in Calm     88 % 0.00 in
07:58 31.7 °F 28.6 °F 29.86 in Calm     88 % 0.00 in
08:03 31.7 °F 28.6 °F 29.86 in Calm     88 % 0.00 in
08:08 31.7 °F 28.6 °F 29.86 in Calm     88 % 0.00 in
08:14 31.8 °F 28.4 °F 29.86 in Calm     87 % 0.00 in
08:24 31.9 °F 28.5 °F 29.87 in Calm     87 % 0.00 in
08:34 31.9 °F 28.5 °F 29.87 in Calm     87 % 0.00 in
08:39 32.0 °F 28.6 °F 29.87 in WSW 3.9 mph 9.2 mph 87 % 0.00 in
08:44 32.0 °F 28.6 °F 29.88 in West 2.5 mph 10.4 mph 87 % 0.00 in
08:49 32.1 °F 28.7 °F 29.88 in WSW 2.6 mph 6.0 mph 87 % 0.00 in
08:54 32.1 °F 28.7 °F 29.88 in West 3.1 mph 6.9 mph 87 % 0.00 in
09:09 32.3 °F 28.6 °F 29.89 in WNW 4.3 mph 7.0 mph 86 % 0.00 in
09:14 32.4 °F 28.7 °F 29.89 in WNW 2.1 mph 6.9 mph 86 % 0.00 in
09:19 32.5 °F 28.8 °F 29.89 in West 3.2 mph 6.9 mph 86 % 0.00 in
09:24 32.6 °F 29.2 °F 29.89 in WNW 2.4 mph 6.9 mph 87 % 0.00 in
09:29 32.7 °F 29.3 °F 29.90 in WSW 4.7 mph 9.2 mph 87 % 0.00 in
09:34 32.9 °F 29.2 °F 29.90 in West 5.0 mph 10.4 mph 86 % 0.00 in
09:39 33.0 °F 29.0 °F 29.89 in WSW 4.5 mph 9.2 mph 85 % 0.00 in
09:49 33.4 °F 29.1 °F 29.90 in WNW 2.9 mph 4.6 mph 84 % 0.00 in
09:54 33.7 °F 29.4 °F 29.90 in West 6.1 mph 13.8 mph 84 % 0.00 in
09:59 33.9 °F 29.3 °F 29.90 in West 7.7 mph 11.5 mph 83 % 0.00 in
10:04 34.2 °F 29.6 °F 29.90 in SW 5.7 mph 11.5 mph 83 % 0.00 in
10:09 34.3 °F 29.4 °F 29.90 in WSW 9.8 mph 12.7 mph 82 % 0.00 in
10:14 34.4 °F 29.5 °F 29.90 in WSW 4.6 mph 13.8 mph 82 % 0.00 in
10:19 34.6 °F 29.7 °F 29.90 in WSW 6.3 mph 15.0 mph 82 % 0.00 in
10:24 34.7 °F 29.5 °F 29.90 in WSW 8.3 mph 16.1 mph 81 % 0.00 in
10:29 34.8 °F 29.3 °F 29.90 in WSW 8.1 mph 11.5 mph 80 % 0.00 in
10:34 34.8 °F 29.6 °F 29.90 in SW 10.9 mph 13.8 mph 81 % 0.00 in
10:39 34.8 °F 29.6 °F 29.90 in WSW 5.3 mph 9.2 mph 81 % 0.00 in
10:44 34.8 °F 29.6 °F 29.90 in WSW 7.2 mph 11.5 mph 81 % 0.00 in
10:54 34.9 °F 29.4 °F 29.90 in WSW 3.1 mph 9.2 mph 80 % 0.00 in
11:04 34.9 °F 29.7 °F 29.90 in SW 6.9 mph 11.5 mph 81 % 0.00 in
11:14 35.0 °F 29.5 °F 29.90 in West 5.7 mph 8.1 mph 80 % 0.00 in
11:19 35.0 °F 29.5 °F 29.89 in WSW 5.4 mph 11.5 mph 80 % 0.00 in
11:29 35.1 °F 29.9 °F 29.89 in WSW 7.3 mph 11.5 mph 81 % 0.00 in
11:34 35.2 °F 30.0 °F 29.89 in WSW 4.8 mph 7.0 mph 81 % 0.00 in
11:40 35.3 °F 30.4 °F 29.89 in WSW 2.9 mph 4.6 mph 82 % 0.00 in
11:45 35.3 °F 30.1 °F 29.89 in WSW 6.2 mph 11.5 mph 81 % 0.00 in
12:04 35.7 °F 30.7 °F 29.89 in WSW 5.1 mph 9.0 mph 82 % 0.00 in
12:10 35.9 °F 30.9 °F 29.89 in SW 5.7 mph 12.7 mph 82 % 0.00 in
12:15 36.1 °F 31.1 °F 29.89 in SSW 5.0 mph 9.2 mph 82 % 0.00 in
12:20 36.4 °F 31.1 °F 29.89 in WSW 3.4 mph 8.1 mph 81 % 0.00 in
12:25 36.8 °F 31.5 °F 29.89 in West 3.0 mph 8.1 mph 81 % 0.00 in
12:30 37.0 °F 31.7 °F 29.89 in SW 4.8 mph 11.5 mph 81 % 0.00 in
12:40 37.4 °F 31.5 °F 29.89 in SSW 2.4 mph 9.2 mph 79 % 0.00 in
12:45 37.6 °F 31.7 °F 29.89 in WSW 0.7 mph 3.5 mph 79 % 0.00 in
12:50 37.7 °F 32.1 °F 29.90 in WSW 6.5 mph 10.0 mph 80 % 0.00 in
12:55 37.9 °F 31.7 °F 29.89 in WSW 5.0 mph 13.8 mph 78 % 0.00 in
13:00 37.9 °F 32.0 °F 29.89 in WSW 3.8 mph 6.9 mph 79 % 0.00 in
13:05 37.9 °F 31.3 °F 29.90 in SSW 3.2 mph 11.5 mph 77 % 0.00 in
13:10 38.0 °F 31.4 °F 29.89 in West 6.8 mph 13.8 mph 77 % 0.00 in
13:20 38.3 °F 31.7 °F 29.89 in West 3.8 mph 8.1 mph 77 % 0.00 in
13:25 38.4 °F 31.5 °F 29.89 in West 7.1 mph 11.5 mph 76 % 0.00 in
13:31 38.5 °F 31.6 °F 29.89 in WSW 3.0 mph 12.0 mph 76 % 0.00 in
13:36 38.6 °F 31.0 °F 29.89 in WSW 6.0 mph 14.0 mph 74 % 0.00 in
13:43 38.6 °F 31.4 °F 29.90 in WSW 10.5 mph 18.0 mph 75 % 0.00 in
13:48 38.7 °F 31.5 °F 29.89 in SW 4.7 mph 10.4 mph 75 % 0.00 in
13:53 38.8 °F 31.9 °F 29.89 in SW 3.2 mph 5.0 mph 76 % 0.00 in
13:58 38.9 °F 31.6 °F 29.89 in WSW 7.4 mph 10.4 mph 75 % 0.00 in
14:03 38.9 °F 31.0 °F 29.89 in West 8.5 mph 14.0 mph 73 % 0.00 in
14:08 38.9 °F 31.3 °F 29.89 in SW 4.0 mph 8.1 mph 74 % 0.00 in
14:13 38.9 °F 31.6 °F 29.90 in WSW 4.7 mph 5.0 mph 75 % 0.00 in
14:14 38.9 °F 31.6 °F 29.90 in West 3.4 mph 8.1 mph 75 % 0.00 in
14:19 38.8 °F 31.2 °F 29.90 in WSW 8.1 mph 15.0 mph 74 % 0.00 in
14:24 38.8 °F 31.2 °F 29.90 in WSW 4.2 mph 6.9 mph 74 % 0.00 in
14:29 38.7 °F 31.1 °F 29.91 in West 5.4 mph 10.4 mph 74 % 0.00 in
14:34 38.7 °F 31.5 °F 29.91 in West 4.0 mph 11.5 mph 75 % 0.00 in
14:44 38.7 °F 31.1 °F 29.91 in West 7.2 mph 12.0 mph 74 % 0.00 in
14:49 38.6 °F 31.0 °F 29.91 in WSW 1.6 mph 5.8 mph 74 % 0.00 in
14:54 38.5 °F 30.3 °F 29.91 in SW 6.1 mph 13.0 mph 72 % 0.00 in
14:59 38.4 °F 29.8 °F 29.91 in WSW 3.4 mph 11.5 mph 71 % 0.00 in
15:04 38.3 °F 30.1 °F 29.91 in SW 3.6 mph 12.7 mph 72 % 0.00 in
15:09 38.2 °F 29.6 °F 29.92 in West 5.2 mph 9.2 mph 71 % 0.00 in
15:14 38.1 °F 29.5 °F 29.92 in WSW 6.2 mph 8.1 mph 71 % 0.00 in
15:25 38.0 °F 29.8 °F 29.92 in SW 5.4 mph 8.0 mph 72 % 0.00 in
15:30 37.9 °F 29.3 °F 29.92 in SW 5.0 mph 10.4 mph 71 % 0.00 in
15:40 37.8 °F 29.6 °F 29.92 in SW 3.8 mph 6.9 mph 72 % 0.00 in
15:50 37.7 °F 29.5 °F 29.93 in SSW 3.7 mph 6.9 mph 72 % 0.00 in
15:55 37.6 °F 29.7 °F 29.93 in SW 2.4 mph 5.8 mph 73 % 0.00 in
16:00 37.6 °F 29.7 °F 29.93 in SSW 3.6 mph 8.1 mph 73 % 0.00 in
16:05 37.5 °F 29.6 °F 29.93 in SW 2.9 mph 4.0 mph 73 % 0.00 in
16:10 37.5 °F 29.6 °F 29.93 in SW 5.5 mph 9.2 mph 73 % 0.00 in
16:20 37.3 °F 29.4 °F 29.94 in SSW 4.3 mph 8.1 mph 73 % 0.00 in
16:25 37.2 °F 29.3 °F 29.94 in WSW 2.5 mph 8.1 mph 73 % 0.00 in
16:30 37.2 °F 29.7 °F 29.94 in SSW 4.2 mph 6.9 mph 74 % 0.00 in
16:40 37.0 °F 29.5 °F 29.95 in WSW 1.9 mph 4.6 mph 74 % 0.00 in
16:43 37.0 °F 29.1 °F 29.95 in SW 4.3 mph 5.8 mph 73 % 0.00 in
17:03 36.6 °F 28.8 °F 29.95 in SW 2.6 mph 8.1 mph 73 % 0.00 in
17:08 36.5 °F 29.0 °F 29.95 in SSW 3.6 mph 9.2 mph 74 % 0.00 in
17:15 36.4 °F 28.9 °F 29.95 in SSW 2.4 mph 5.0 mph 74 % 0.00 in
17:20 36.2 °F 28.4 °F 29.96 in SW 3.2 mph 8.1 mph 73 % 0.00 in
17:25 36.1 °F 28.6 °F 29.96 in SW 4.0 mph 7.0 mph 74 % 0.00 in
17:30 36.0 °F 28.5 °F 29.96 in SSW 4.4 mph 6.9 mph 74 % 0.00 in
17:40 35.9 °F 28.4 °F 29.97 in SW 2.6 mph 4.0 mph 74 % 0.00 in
17:45 35.8 °F 28.3 °F 29.97 in WSW 2.3 mph 5.8 mph 74 % 0.00 in
17:50 35.7 °F 28.2 °F 29.97 in WSW 5.1 mph 10.0 mph 74 % 0.00 in
17:55 35.6 °F 28.1 °F 29.97 in West 4.9 mph 5.8 mph 74 % 0.00 in
18:00 35.4 °F 27.9 °F 29.97 in SSW 4.1 mph 9.2 mph 74 % 0.00 in
18:05 35.4 °F 27.9 °F 29.98 in SW 3.3 mph 8.1 mph 74 % 0.00 in
18:10 35.3 °F 27.5 °F 29.98 in SSW 4.2 mph 9.0 mph 73 % 0.00 in
18:15 35.3 °F 27.8 °F 29.98 in SW 2.0 mph 9.0 mph 74 % 0.00 in
18:21 35.2 °F 27.7 °F 29.98 in SSW 3.0 mph 6.9 mph 74 % 0.00 in
18:36 35.0 °F 27.5 °F 29.98 in WSW 3.4 mph 4.6 mph 74 % 0.00 in
18:41 34.8 °F 27.4 °F 29.98 in SW 2.6 mph 4.6 mph 74 % 0.00 in
18:46 34.7 °F 27.3 °F 29.98 in SSW 2.7 mph 6.0 mph 74 % 0.00 in
18:51 34.7 °F 27.3 °F 29.98 in SSW 3.5 mph 6.9 mph 74 % 0.00 in
18:56 34.6 °F 27.2 °F 29.98 in SSW 1.3 mph 3.5 mph 74 % 0.00 in
19:06 34.5 °F 27.1 °F 29.98 in SW 2.1 mph 3.5 mph 74 % 0.00 in
19:12 34.4 °F 27.0 °F 29.99 in WSW 3.1 mph 3.5 mph 74 % 0.00 in
19:22 34.3 °F 26.9 °F 29.98 in SW 1.2 mph 5.8 mph 74 % 0.00 in
19:27 34.3 °F 27.2 °F 29.99 in SW 2.9 mph 4.6 mph 75 % 0.00 in
19:32 34.3 °F 26.9 °F 29.99 in SSW 2.5 mph 4.6 mph 74 % 0.00 in
19:37 34.3 °F 26.9 °F 29.99 in SW 2.6 mph 4.6 mph 74 % 0.00 in
19:42 34.3 °F 27.2 °F 29.99 in SSW 2.8 mph 6.9 mph 75 % 0.00 in
19:47 34.3 °F 26.9 °F 29.99 in SSW 2.4 mph 5.0 mph 74 % 0.00 in
19:52 34.3 °F 26.9 °F 29.99 in WSW 5.1 mph 5.8 mph 74 % 0.00 in
19:57 34.3 °F 26.9 °F 30.00 in SW 2.0 mph 5.0 mph 74 % 0.00 in
20:07 34.4 °F 26.6 °F 30.00 in WSW 1.7 mph 3.0 mph 73 % 0.00 in
20:17 34.4 °F 26.6 °F 30.00 in SSW 2.9 mph 5.8 mph 73 % 0.00 in
20:23 34.4 °F 26.6 °F 30.01 in SW 2.4 mph 3.5 mph 73 % 0.00 in
20:28 34.4 °F 26.6 °F 30.01 in SSW 0.3 mph 3.5 mph 73 % 0.00 in
20:43 34.3 °F 26.2 °F 30.00 in SW 0.8 mph 3.5 mph 72 % 0.00 in
20:48 34.4 °F 26.6 °F 30.00 in SSE 1.6 mph 5.8 mph 73 % 0.00 in
20:53 34.4 °F 26.6 °F 30.00 in SW 1.3 mph 3.5 mph 73 % 0.00 in
20:58 34.4 °F 26.6 °F 30.00 in WSW 0.1 mph 3.5 mph 73 % 0.00 in
21:03 34.4 °F 26.6 °F 30.00 in SSW 2.1 mph 3.5 mph 73 % 0.00 in
21:08 34.4 °F 26.6 °F 30.00 in SW 1.2 mph 3.5 mph 73 % 0.00 in
21:18 34.4 °F 27.0 °F 30.01 in WSW 3.8 mph 6.9 mph 74 % 0.00 in
21:23 34.4 °F 27.0 °F 30.01 in SSW 3.7 mph 5.0 mph 74 % 0.00 in
21:43 34.6 °F 27.2 °F 30.01 in SW 4.8 mph 8.0 mph 74 % 0.00 in
21:54 34.7 °F 27.3 °F 30.01 in SSW 2.9 mph 7.0 mph 74 % 0.00 in
22:04 34.8 °F 27.4 °F 30.00 in SW 2.2 mph 4.6 mph 74 % 0.00 in
22:09 34.8 °F 27.4 °F 30.00 in WSW 0.2 mph 3.5 mph 74 % 0.00 in
22:14 34.8 °F 27.4 °F 30.00 in SW 4.7 mph 8.1 mph 74 % 0.00 in
22:19 34.9 °F 27.5 °F 30.00 in SW 2.9 mph 5.0 mph 74 % 0.00 in
22:24 35.0 °F 27.2 °F 30.00 in SW 6.6 mph 11.5 mph 73 % 0.00 in
22:39 35.1 °F 27.0 °F 30.01 in West 6.5 mph 11.5 mph 72 % 0.00 in
22:44 35.2 °F 26.7 °F 30.00 in WSW 4.6 mph 10.0 mph 71 % 0.00 in
22:49 35.3 °F 26.8 °F 30.00 in SW 5.5 mph 7.0 mph 71 % 0.00 in
22:59 35.4 °F 26.6 °F 30.01 in SSW 3.3 mph 6.0 mph 70 % 0.00 in
23:09 35.4 °F 27.3 °F 30.00 in WSW 2.6 mph 4.0 mph 72 % 0.00 in
23:14 35.3 °F 27.2 °F 30.01 in South 4.0 mph 7.0 mph 72 % 0.00 in
23:19 35.3 °F 27.2 °F 30.00 in SW 1.0 mph 2.3 mph 72 % 0.00 in
23:25 35.3 °F 27.2 °F 30.01 in WSW 3.1 mph 8.1 mph 72 % 0.00 in
23:30 35.3 °F 27.2 °F 30.00 in SSW 2.5 mph 4.6 mph 72 % 0.00 in
23:35 35.2 °F 27.1 °F 30.01 in SSW 1.4 mph 5.8 mph 72 % 0.00 in
23:40 35.2 °F 27.1 °F 30.01 in SSW 3.5 mph 7.0 mph 72 % 0.00 in
23:50 35.1 °F 27.0 °F 30.00 in SW 4.1 mph 8.1 mph 72 % 0.00 in
Crab Meadow Weather
Compliments of Weather Underground - 2.5 mb

Script developed by  Jim McMurry - jmcmurry@mwt.net Adapted for the template by  Wim van der Kuil - Leuven-Template.eu

Astronomy: The rings of Saturn are made of ice and rock.